sensor_id;sensor_type;location;lat;lon;timestamp;temperature;humidity
15916;DHT22;8057;47.830;-3.870;2024-01-16T00:00:22;2.50;99.90
15916;DHT22;8057;47.830;-3.870;2024-01-16T00:04:32;2.40;99.90
15916;DHT22;8057;47.830;-3.870;2024-01-16T00:08:41;2.50;99.90
15916;DHT22;8057;47.830;-3.870;2024-01-16T00:12:50;2.50;99.90
15916;DHT22;8057;47.830;-3.870;2024-01-16T00:16:59;2.50;99.90
15916;DHT22;8057;47.830;-3.870;2024-01-16T00:21:10;2.50;99.90
15916;DHT22;8057;47.830;-3.870;2024-01-16T00:25:19;2.30;99.90
15916;DHT22;8057;47.830;-3.870;2024-01-16T00:29:28;2.30;99.90
15916;DHT22;8057;47.830;-3.870;2024-01-16T00:33:38;2.30;99.90
15916;DHT22;8057;47.830;-3.870;2024-01-16T00:37:49;2.40;99.90
15916;DHT22;8057;47.830;-3.870;2024-01-16T00:41:57;2.50;99.90
15916;DHT22;8057;47.830;-3.870;2024-01-16T00:46:07;2.40;99.90
15916;DHT22;8057;47.830;-3.870;2024-01-16T00:50:15;2.30;99.90
15916;DHT22;8057;47.830;-3.870;2024-01-16T00:54:26;2.30;99.90
15916;DHT22;8057;47.830;-3.870;2024-01-16T00:58:35;2.40;99.90
15916;DHT22;8057;47.830;-3.870;2024-01-16T01:02:44;2.40;99.90
15916;DHT22;8057;47.830;-3.870;2024-01-16T01:06:53;2.30;99.90
15916;DHT22;8057;47.830;-3.870;2024-01-16T01:11:03;2.30;99.90
15916;DHT22;8057;47.830;-3.870;2024-01-16T01:15:12;2.20;99.90
15916;DHT22;8057;47.830;-3.870;2024-01-16T01:19:22;2.30;99.90
15916;DHT22;8057;47.830;-3.870;2024-01-16T01:23:31;2.30;99.90
15916;DHT22;8057;47.830;-3.870;2024-01-16T01:27:42;2.30;99.90
15916;DHT22;8057;47.830;-3.870;2024-01-16T01:31:50;2.30;99.90
15916;DHT22;8057;47.830;-3.870;2024-01-16T01:35:59;2.20;99.90
15916;DHT22;8057;47.830;-3.870;2024-01-16T01:40:09;2.30;99.90
15916;DHT22;8057;47.830;-3.870;2024-01-16T01:44:21;2.40;99.90
15916;DHT22;8057;47.830;-3.870;2024-01-16T01:48:32;2.40;99.90
15916;DHT22;8057;47.830;-3.870;2024-01-16T01:52:42;2.40;99.90
15916;DHT22;8057;47.830;-3.870;2024-01-16T01:56:51;2.30;99.90
15916;DHT22;8057;47.830;-3.870;2024-01-16T02:01:03;2.30;99.90
15916;DHT22;8057;47.830;-3.870;2024-01-16T02:05:12;2.40;99.90
15916;DHT22;8057;47.830;-3.870;2024-01-16T02:09:21;2.50;99.90
15916;DHT22;8057;47.830;-3.870;2024-01-16T02:13:30;2.50;99.90
15916;DHT22;8057;47.830;-3.870;2024-01-16T02:17:40;2.50;99.90
15916;DHT22;8057;47.830;-3.870;2024-01-16T02:21:51;2.60;99.90
15916;DHT22;8057;47.830;-3.870;2024-01-16T02:26:04;2.50;99.90
15916;DHT22;8057;47.830;-3.870;2024-01-16T02:30:13;2.50;99.90
15916;DHT22;8057;47.830;-3.870;2024-01-16T02:34:22;2.60;99.90
15916;DHT22;8057;47.830;-3.870;2024-01-16T02:38:31;2.60;99.90
15916;DHT22;8057;47.830;-3.870;2024-01-16T02:42:42;2.50;99.90
15916;DHT22;8057;47.830;-3.870;2024-01-16T02:46:51;2.50;99.90
15916;DHT22;8057;47.830;-3.870;2024-01-16T02:51:00;2.40;99.90
15916;DHT22;8057;47.830;-3.870;2024-01-16T02:55:09;2.50;99.90
15916;DHT22;8057;47.830;-3.870;2024-01-16T02:59:19;2.50;99.90
15916;DHT22;8057;47.830;-3.870;2024-01-16T03:03:28;2.50;99.90
15916;DHT22;8057;47.830;-3.870;2024-01-16T03:07:37;2.40;99.90
15916;DHT22;8057;47.830;-3.870;2024-01-16T03:11:46;2.30;99.90
15916;DHT22;8057;47.830;-3.870;2024-01-16T03:15:57;2.30;99.90
15916;DHT22;8057;47.830;-3.870;2024-01-16T03:20:07;2.30;99.90
15916;DHT22;8057;47.830;-3.870;2024-01-16T03:24:16;2.30;99.90
15916;DHT22;8057;47.830;-3.870;2024-01-16T03:28:25;2.20;99.90
15916;DHT22;8057;47.830;-3.870;2024-01-16T03:32:35;2.20;99.90
15916;DHT22;8057;47.830;-3.870;2024-01-16T03:36:44;2.20;99.90
15916;DHT22;8057;47.830;-3.870;2024-01-16T03:40:53;2.20;99.90
15916;DHT22;8057;47.830;-3.870;2024-01-16T03:45:02;2.30;99.90
15916;DHT22;8057;47.830;-3.870;2024-01-16T03:49:12;2.30;99.90
15916;DHT22;8057;47.830;-3.870;2024-01-16T03:53:21;2.10;99.90
15916;DHT22;8057;47.830;-3.870;2024-01-16T03:57:30;2.10;99.90
15916;DHT22;8057;47.830;-3.870;2024-01-16T04:01:39;2.20;99.90
15916;DHT22;8057;47.830;-3.870;2024-01-16T04:05:51;2.20;99.90
15916;DHT22;8057;47.830;-3.870;2024-01-16T04:10:00;2.20;99.90
15916;DHT22;8057;47.830;-3.870;2024-01-16T04:14:10;2.10;99.90
15916;DHT22;8057;47.830;-3.870;2024-01-16T04:18:19;2.10;99.90
15916;DHT22;8057;47.830;-3.870;2024-01-16T04:22:29;2.20;99.90
15916;DHT22;8057;47.830;-3.870;2024-01-16T04:26:38;2.30;99.90
15916;DHT22;8057;47.830;-3.870;2024-01-16T04:30:47;2.30;99.90
15916;DHT22;8057;47.830;-3.870;2024-01-16T04:34:56;2.30;99.90
15916;DHT22;8057;47.830;-3.870;2024-01-16T04:39:06;2.30;99.90
15916;DHT22;8057;47.830;-3.870;2024-01-16T04:43:16;2.40;99.90
15916;DHT22;8057;47.830;-3.870;2024-01-16T04:47:24;2.50;99.90
15916;DHT22;8057;47.830;-3.870;2024-01-16T04:51:34;2.40;99.90
15916;DHT22;8057;47.830;-3.870;2024-01-16T04:55:44;2.30;99.90
15916;DHT22;8057;47.830;-3.870;2024-01-16T04:59:53;2.30;99.90
15916;DHT22;8057;47.830;-3.870;2024-01-16T05:04:02;2.30;99.90
15916;DHT22;8057;47.830;-3.870;2024-01-16T05:08:12;2.30;99.90
15916;DHT22;8057;47.830;-3.870;2024-01-16T05:12:23;2.40;99.90
15916;DHT22;8057;47.830;-3.870;2024-01-16T05:16:31;2.30;99.90
15916;DHT22;8057;47.830;-3.870;2024-01-16T05:20:40;2.20;99.90
15916;DHT22;8057;47.830;-3.870;2024-01-16T05:24:49;2.10;99.90
15916;DHT22;8057;47.830;-3.870;2024-01-16T05:28:59;2.10;99.90
15916;DHT22;8057;47.830;-3.870;2024-01-16T05:33:08;2.10;99.90
15916;DHT22;8057;47.830;-3.870;2024-01-16T05:37:18;2.00;99.90
15916;DHT22;8057;47.830;-3.870;2024-01-16T05:41:27;1.90;99.90
15916;DHT22;8057;47.830;-3.870;2024-01-16T05:45:41;1.90;99.90
15916;DHT22;8057;47.830;-3.870;2024-01-16T05:49:50;1.90;99.90
15916;DHT22;8057;47.830;-3.870;2024-01-16T05:53:59;1.80;99.90
15916;DHT22;8057;47.830;-3.870;2024-01-16T05:58:08;1.70;99.90
15916;DHT22;8057;47.830;-3.870;2024-01-16T06:02:22;1.70;99.90
15916;DHT22;8057;47.830;-3.870;2024-01-16T06:06:31;1.80;99.90
15916;DHT22;8057;47.830;-3.870;2024-01-16T06:10:40;1.80;99.90
15916;DHT22;8057;47.830;-3.870;2024-01-16T06:14:49;1.70;99.90
15916;DHT22;8057;47.830;-3.870;2024-01-16T06:18:59;1.60;99.90
15916;DHT22;8057;47.830;-3.870;2024-01-16T06:23:08;1.60;99.90
15916;DHT22;8057;47.830;-3.870;2024-01-16T06:27:17;1.60;99.90
15916;DHT22;8057;47.830;-3.870;2024-01-16T06:31:27;1.60;99.90
15916;DHT22;8057;47.830;-3.870;2024-01-16T06:35:38;1.60;99.90
15916;DHT22;8057;47.830;-3.870;2024-01-16T06:39:47;1.50;99.90
15916;DHT22;8057;47.830;-3.870;2024-01-16T06:43:56;1.60;99.90
15916;DHT22;8057;47.830;-3.870;2024-01-16T06:48:05;1.70;99.90
15916;DHT22;8057;47.830;-3.870;2024-01-16T06:52:16;1.70;99.90
15916;DHT22;8057;47.830;-3.870;2024-01-16T06:56:25;1.70;99.90
15916;DHT22;8057;47.830;-3.870;2024-01-16T07:00:34;1.70;99.90
15916;DHT22;8057;47.830;-3.870;2024-01-16T07:04:42;1.70;99.90
15916;DHT22;8057;47.830;-3.870;2024-01-16T07:08:53;1.80;99.90
15916;DHT22;8057;47.830;-3.870;2024-01-16T07:13:02;1.90;99.90
15916;DHT22;8057;47.830;-3.870;2024-01-16T07:17:11;1.80;99.90
15916;DHT22;8057;47.830;-3.870;2024-01-16T07:21:20;1.80;99.90
15916;DHT22;8057;47.830;-3.870;2024-01-16T07:25:30;1.80;99.90
15916;DHT22;8057;47.830;-3.870;2024-01-16T07:29:39;1.80;99.90
15916;DHT22;8057;47.830;-3.870;2024-01-16T07:33:49;1.80;99.90
15916;DHT22;8057;47.830;-3.870;2024-01-16T07:37:58;1.80;99.90
15916;DHT22;8057;47.830;-3.870;2024-01-16T07:42:12;1.70;99.90
15916;DHT22;8057;47.830;-3.870;2024-01-16T07:46:21;1.70;99.90
15916;DHT22;8057;47.830;-3.870;2024-01-16T07:50:30;1.80;99.90
15916;DHT22;8057;47.830;-3.870;2024-01-16T07:54:39;1.90;99.90
15916;DHT22;8057;47.830;-3.870;2024-01-16T07:58:49;1.90;99.90
15916;DHT22;8057;47.830;-3.870;2024-01-16T08:02:58;1.80;99.90
15916;DHT22;8057;47.830;-3.870;2024-01-16T08:07:07;1.80;99.90
15916;DHT22;8057;47.830;-3.870;2024-01-16T08:11:19;1.80;99.90
15916;DHT22;8057;47.830;-3.870;2024-01-16T08:15:29;1.90;99.90
15916;DHT22;8057;47.830;-3.870;2024-01-16T08:19:38;1.80;99.90
15916;DHT22;8057;47.830;-3.870;2024-01-16T08:23:47;1.70;99.90
15916;DHT22;8057;47.830;-3.870;2024-01-16T08:27:56;1.70;99.90
15916;DHT22;8057;47.830;-3.870;2024-01-16T08:32:06;1.70;99.90
15916;DHT22;8057;47.830;-3.870;2024-01-16T08:36:15;1.60;99.90
15916;DHT22;8057;47.830;-3.870;2024-01-16T08:40:24;1.70;99.90
15916;DHT22;8057;47.830;-3.870;2024-01-16T08:44:33;1.90;99.90
15916;DHT22;8057;47.830;-3.870;2024-01-16T08:48:43;2.00;99.90
15916;DHT22;8057;47.830;-3.870;2024-01-16T08:52:52;2.00;99.90
15916;DHT22;8057;47.830;-3.870;2024-01-16T08:57:01;2.10;99.90
15916;DHT22;8057;47.830;-3.870;2024-01-16T09:01:10;2.10;99.90
15916;DHT22;8057;47.830;-3.870;2024-01-16T09:05:21;2.10;99.90
15916;DHT22;8057;47.830;-3.870;2024-01-16T09:09:33;2.20;99.90
15916;DHT22;8057;47.830;-3.870;2024-01-16T09:13:41;2.10;99.90
15916;DHT22;8057;47.830;-3.870;2024-01-16T09:17:51;2.10;99.90
15916;DHT22;8057;47.830;-3.870;2024-01-16T09:22:01;2.20;99.90
15916;DHT22;8057;47.830;-3.870;2024-01-16T09:26:11;2.20;99.90
15916;DHT22;8057;47.830;-3.870;2024-01-16T09:30:20;2.30;99.90
15916;DHT22;8057;47.830;-3.870;2024-01-16T09:34:30;2.40;99.90
15916;DHT22;8057;47.830;-3.870;2024-01-16T09:38:40;2.40;99.90
15916;DHT22;8057;47.830;-3.870;2024-01-16T09:42:49;2.50;99.90
15916;DHT22;8057;47.830;-3.870;2024-01-16T09:46:58;2.70;99.90
15916;DHT22;8057;47.830;-3.870;2024-01-16T09:51:08;2.90;99.90
15916;DHT22;8057;47.830;-3.870;2024-01-16T09:55:18;3.00;99.90
15916;DHT22;8057;47.830;-3.870;2024-01-16T09:59:29;3.10;99.90
15916;DHT22;8057;47.830;-3.870;2024-01-16T10:03:38;3.30;99.90
15916;DHT22;8057;47.830;-3.870;2024-01-16T10:07:50;3.60;99.90
15916;DHT22;8057;47.830;-3.870;2024-01-16T10:12:02;3.60;99.90
15916;DHT22;8057;47.830;-3.870;2024-01-16T10:16:11;3.70;99.90
15916;DHT22;8057;47.830;-3.870;2024-01-16T10:20:32;3.60;99.90
15916;DHT22;8057;47.830;-3.870;2024-01-16T10:24:41;3.60;99.90
15916;DHT22;8057;47.830;-3.870;2024-01-16T10:28:52;3.50;99.90
15916;DHT22;8057;47.830;-3.870;2024-01-16T10:33:15;3.60;99.90
15916;DHT22;8057;47.830;-3.870;2024-01-16T10:37:25;3.70;99.90
15916;DHT22;8057;47.830;-3.870;2024-01-16T10:41:34;3.80;99.90
15916;DHT22;8057;47.830;-3.870;2024-01-16T10:45:46;3.90;99.90
15916;DHT22;8057;47.830;-3.870;2024-01-16T10:49:55;4.10;99.90
15916;DHT22;8057;47.830;-3.870;2024-01-16T10:54:04;4.30;99.90
15916;DHT22;8057;47.830;-3.870;2024-01-16T10:58:16;4.40;99.90
15916;DHT22;8057;47.830;-3.870;2024-01-16T11:02:33;4.50;99.90
15916;DHT22;8057;47.830;-3.870;2024-01-16T11:06:44;4.60;99.90
15916;DHT22;8057;47.830;-3.870;2024-01-16T11:10:53;4.70;99.90
15916;DHT22;8057;47.830;-3.870;2024-01-16T11:15:03;4.90;99.90
15916;DHT22;8057;47.830;-3.870;2024-01-16T11:19:17;5.00;99.90
15916;DHT22;8057;47.830;-3.870;2024-01-16T11:23:46;5.00;99.90
15916;DHT22;8057;47.830;-3.870;2024-01-16T11:28:08;4.90;99.90
15916;DHT22;8057;47.830;-3.870;2024-01-16T11:32:32;4.90;99.90
15916;DHT22;8057;47.830;-3.870;2024-01-16T11:36:52;4.90;99.90
15916;DHT22;8057;47.830;-3.870;2024-01-16T11:41:03;4.90;99.90
15916;DHT22;8057;47.830;-3.870;2024-01-16T11:45:48;4.90;99.90
15916;DHT22;8057;47.830;-3.870;2024-01-16T11:50:09;5.00;99.90
15916;DHT22;8057;47.830;-3.870;2024-01-16T11:54:20;5.10;99.90
15916;DHT22;8057;47.830;-3.870;2024-01-16T11:58:42;5.20;99.90
15916;DHT22;8057;47.830;-3.870;2024-01-16T12:02:55;5.00;99.90
15916;DHT22;8057;47.830;-3.870;2024-01-16T12:07:04;5.00;99.90
15916;DHT22;8057;47.830;-3.870;2024-01-16T12:11:18;4.90;99.90
15916;DHT22;8057;47.830;-3.870;2024-01-16T12:15:33;5.00;99.90
15916;DHT22;8057;47.830;-3.870;2024-01-16T12:19:42;5.10;99.90
15916;DHT22;8057;47.830;-3.870;2024-01-16T12:23:51;5.10;99.90
15916;DHT22;8057;47.830;-3.870;2024-01-16T12:28:17;5.20;99.90
15916;DHT22;8057;47.830;-3.870;2024-01-16T12:32:31;5.20;99.90
15916;DHT22;8057;47.830;-3.870;2024-01-16T12:36:40;5.10;99.90
15916;DHT22;8057;47.830;-3.870;2024-01-16T12:40:51;5.10;99.90
15916;DHT22;8057;47.830;-3.870;2024-01-16T12:45:08;5.10;99.90
15916;DHT22;8057;47.830;-3.870;2024-01-16T12:49:17;5.20;99.90
15916;DHT22;8057;47.830;-3.870;2024-01-16T12:53:26;5.10;99.90
15916;DHT22;8057;47.830;-3.870;2024-01-16T12:57:35;5.00;99.90
15916;DHT22;8057;47.830;-3.870;2024-01-16T13:01:46;5.00;99.90
15916;DHT22;8057;47.830;-3.870;2024-01-16T13:05:57;4.90;99.90
15916;DHT22;8057;47.830;-3.870;2024-01-16T13:10:08;4.90;99.90
15916;DHT22;8057;47.830;-3.870;2024-01-16T13:14:19;4.90;99.90
15916;DHT22;8057;47.830;-3.870;2024-01-16T13:18:31;4.80;99.90
15916;DHT22;8057;47.830;-3.870;2024-01-16T13:22:40;4.80;99.90
15916;DHT22;8057;47.830;-3.870;2024-01-16T13:26:54;4.80;99.90
15916;DHT22;8057;47.830;-3.870;2024-01-16T13:31:03;4.80;99.90
15916;DHT22;8057;47.830;-3.870;2024-01-16T13:35:13;4.80;99.90
15916;DHT22;8057;47.830;-3.870;2024-01-16T13:39:22;4.90;99.90
15916;DHT22;8057;47.830;-3.870;2024-01-16T13:43:31;4.90;99.90
15916;DHT22;8057;47.830;-3.870;2024-01-16T13:47:40;4.90;99.90
15916;DHT22;8057;47.830;-3.870;2024-01-16T13:51:51;5.00;99.90
15916;DHT22;8057;47.830;-3.870;2024-01-16T13:55:59;5.00;99.90
15916;DHT22;8057;47.830;-3.870;2024-01-16T14:00:10;5.00;99.90
15916;DHT22;8057;47.830;-3.870;2024-01-16T14:04:21;5.10;99.90
15916;DHT22;8057;47.830;-3.870;2024-01-16T14:08:31;5.10;99.90
15916;DHT22;8057;47.830;-3.870;2024-01-16T14:12:40;5.10;99.90
15916;DHT22;8057;47.830;-3.870;2024-01-16T14:16:50;5.10;99.90
15916;DHT22;8057;47.830;-3.870;2024-01-16T14:21:08;5.10;99.90
15916;DHT22;8057;47.830;-3.870;2024-01-16T14:25:19;5.00;99.90
15916;DHT22;8057;47.830;-3.870;2024-01-16T14:29:28;5.00;99.90
15916;DHT22;8057;47.830;-3.870;2024-01-16T14:33:37;4.90;99.90
15916;DHT22;8057;47.830;-3.870;2024-01-16T14:37:46;4.80;99.90
15916;DHT22;8057;47.830;-3.870;2024-01-16T14:41:57;4.90;99.90
15916;DHT22;8057;47.830;-3.870;2024-01-16T14:46:07;4.80;99.90
15916;DHT22;8057;47.830;-3.870;2024-01-16T14:50:18;4.80;99.90
15916;DHT22;8057;47.830;-3.870;2024-01-16T14:54:29;4.70;99.90
15916;DHT22;8057;47.830;-3.870;2024-01-16T14:58:39;4.70;99.90
15916;DHT22;8057;47.830;-3.870;2024-01-16T15:02:48;4.70;99.90
15916;DHT22;8057;47.830;-3.870;2024-01-16T15:06:57;4.60;99.90
15916;DHT22;8057;47.830;-3.870;2024-01-16T15:11:05;4.50;99.90
15916;DHT22;8057;47.830;-3.870;2024-01-16T15:15:16;4.40;99.90
15916;DHT22;8057;47.830;-3.870;2024-01-16T15:19:25;4.40;99.90
15916;DHT22;8057;47.830;-3.870;2024-01-16T15:23:34;4.40;99.90
15916;DHT22;8057;47.830;-3.870;2024-01-16T15:27:44;4.40;99.90
15916;DHT22;8057;47.830;-3.870;2024-01-16T15:31:54;4.40;99.90
15916;DHT22;8057;47.830;-3.870;2024-01-16T15:36:04;4.30;99.90
15916;DHT22;8057;47.830;-3.870;2024-01-16T15:40:13;4.30;99.90
15916;DHT22;8057;47.830;-3.870;2024-01-16T15:44:26;4.30;99.90
15916;DHT22;8057;47.830;-3.870;2024-01-16T15:48:37;4.30;99.90
15916;DHT22;8057;47.830;-3.870;2024-01-16T15:52:46;4.20;99.90
15916;DHT22;8057;47.830;-3.870;2024-01-16T15:56:56;4.10;99.90
15916;DHT22;8057;47.830;-3.870;2024-01-16T16:01:05;4.20;99.90
15916;DHT22;8057;47.830;-3.870;2024-01-16T16:05:15;4.20;99.90
15916;DHT22;8057;47.830;-3.870;2024-01-16T16:09:25;4.10;99.90
15916;DHT22;8057;47.830;-3.870;2024-01-16T16:13:36;4.00;99.90
15916;DHT22;8057;47.830;-3.870;2024-01-16T16:17:45;4.00;99.90
15916;DHT22;8057;47.830;-3.870;2024-01-16T16:21:56;4.00;99.90
15916;DHT22;8057;47.830;-3.870;2024-01-16T16:26:04;4.00;99.90
15916;DHT22;8057;47.830;-3.870;2024-01-16T16:30:14;4.00;99.90
15916;DHT22;8057;47.830;-3.870;2024-01-16T16:34:22;4.00;99.90
15916;DHT22;8057;47.830;-3.870;2024-01-16T16:38:33;3.90;99.90
15916;DHT22;8057;47.830;-3.870;2024-01-16T16:42:42;3.90;99.90
15916;DHT22;8057;47.830;-3.870;2024-01-16T16:46:50;3.90;99.90
15916;DHT22;8057;47.830;-3.870;2024-01-16T16:50:59;3.90;99.90
15916;DHT22;8057;47.830;-3.870;2024-01-16T16:55:10;4.00;99.90
15916;DHT22;8057;47.830;-3.870;2024-01-16T16:59:18;4.00;99.90
15916;DHT22;8057;47.830;-3.870;2024-01-16T17:03:27;3.90;99.90
15916;DHT22;8057;47.830;-3.870;2024-01-16T17:07:36;3.90;99.90
15916;DHT22;8057;47.830;-3.870;2024-01-16T17:11:46;3.90;99.90
15916;DHT22;8057;47.830;-3.870;2024-01-16T17:15:58;3.90;99.90
15916;DHT22;8057;47.830;-3.870;2024-01-16T17:20:08;3.90;99.90
15916;DHT22;8057;47.830;-3.870;2024-01-16T17:24:20;3.90;99.90
15916;DHT22;8057;47.830;-3.870;2024-01-16T17:28:30;3.90;99.90
15916;DHT22;8057;47.830;-3.870;2024-01-16T17:32:39;3.90;99.90
15916;DHT22;8057;47.830;-3.870;2024-01-16T17:36:49;4.00;99.90
15916;DHT22;8057;47.830;-3.870;2024-01-16T17:40:58;4.00;99.90
15916;DHT22;8057;47.830;-3.870;2024-01-16T17:45:10;3.90;99.90
15916;DHT22;8057;47.830;-3.870;2024-01-16T17:49:19;3.90;99.90
15916;DHT22;8057;47.830;-3.870;2024-01-16T17:53:28;3.90;99.90
15916;DHT22;8057;47.830;-3.870;2024-01-16T17:57:37;4.00;99.90
15916;DHT22;8057;47.830;-3.870;2024-01-16T18:01:49;3.90;99.90
15916;DHT22;8057;47.830;-3.870;2024-01-16T18:05:59;3.90;99.90
15916;DHT22;8057;47.830;-3.870;2024-01-16T18:10:12;3.90;99.90
15916;DHT22;8057;47.830;-3.870;2024-01-16T18:14:22;3.90;99.90
15916;DHT22;8057;47.830;-3.870;2024-01-16T18:18:33;3.80;99.90
15916;DHT22;8057;47.830;-3.870;2024-01-16T18:22:44;3.70;99.90
15916;DHT22;8057;47.830;-3.870;2024-01-16T18:26:55;3.60;99.90
15916;DHT22;8057;47.830;-3.870;2024-01-16T18:31:04;3.60;99.90
15916;DHT22;8057;47.830;-3.870;2024-01-16T18:35:18;3.60;99.90
15916;DHT22;8057;47.830;-3.870;2024-01-16T18:39:27;3.50;99.90
15916;DHT22;8057;47.830;-3.870;2024-01-16T18:43:37;3.50;99.90
15916;DHT22;8057;47.830;-3.870;2024-01-16T18:47:45;3.40;99.90
15916;DHT22;8057;47.830;-3.870;2024-01-16T18:51:57;3.30;99.90
15916;DHT22;8057;47.830;-3.870;2024-01-16T18:56:13;3.30;99.90
15916;DHT22;8057;47.830;-3.870;2024-01-16T19:00:22;3.30;99.90
15916;DHT22;8057;47.830;-3.870;2024-01-16T19:04:31;3.30;99.90
15916;DHT22;8057;47.830;-3.870;2024-01-16T19:08:42;3.10;99.90
15916;DHT22;8057;47.830;-3.870;2024-01-16T19:12:51;3.10;99.90
15916;DHT22;8057;47.830;-3.870;2024-01-16T19:17:00;3.10;99.90
15916;DHT22;8057;47.830;-3.870;2024-01-16T19:21:09;3.10;99.90
15916;DHT22;8057;47.830;-3.870;2024-01-16T19:25:19;3.00;99.90
15916;DHT22;8057;47.830;-3.870;2024-01-16T19:29:28;3.00;99.90
15916;DHT22;8057;47.830;-3.870;2024-01-16T19:33:37;3.00;99.90
15916;DHT22;8057;47.830;-3.870;2024-01-16T19:37:47;3.00;99.90
15916;DHT22;8057;47.830;-3.870;2024-01-16T19:41:58;3.00;99.90
15916;DHT22;8057;47.830;-3.870;2024-01-16T19:46:07;2.90;99.90
15916;DHT22;8057;47.830;-3.870;2024-01-16T19:50:16;2.90;99.90
15916;DHT22;8057;47.830;-3.870;2024-01-16T19:54:29;2.90;99.90
15916;DHT22;8057;47.830;-3.870;2024-01-16T19:58:41;2.90;99.90
15916;DHT22;8057;47.830;-3.870;2024-01-16T20:02:51;2.90;99.90
15916;DHT22;8057;47.830;-3.870;2024-01-16T20:07:00;2.90;99.90
15916;DHT22;8057;47.830;-3.870;2024-01-16T20:11:09;2.90;99.90
15916;DHT22;8057;47.830;-3.870;2024-01-16T20:15:20;2.90;99.90
15916;DHT22;8057;47.830;-3.870;2024-01-16T20:19:29;2.90;99.90
15916;DHT22;8057;47.830;-3.870;2024-01-16T20:23:38;2.90;99.90
15916;DHT22;8057;47.830;-3.870;2024-01-16T20:27:47;2.90;99.90
15916;DHT22;8057;47.830;-3.870;2024-01-16T20:31:57;2.90;99.90
15916;DHT22;8057;47.830;-3.870;2024-01-16T20:36:06;2.90;99.90
15916;DHT22;8057;47.830;-3.870;2024-01-16T20:40:16;2.90;99.90
15916;DHT22;8057;47.830;-3.870;2024-01-16T20:44:24;3.00;99.90
15916;DHT22;8057;47.830;-3.870;2024-01-16T20:48:41;3.00;99.90
15916;DHT22;8057;47.830;-3.870;2024-01-16T20:52:50;3.00;99.90
15916;DHT22;8057;47.830;-3.870;2024-01-16T20:56:59;2.90;99.90
15916;DHT22;8057;47.830;-3.870;2024-01-16T21:01:08;2.90;99.90
15916;DHT22;8057;47.830;-3.870;2024-01-16T21:05:18;3.00;99.90
15916;DHT22;8057;47.830;-3.870;2024-01-16T21:09:28;3.00;99.90
15916;DHT22;8057;47.830;-3.870;2024-01-16T21:13:44;2.90;99.90
15916;DHT22;8057;47.830;-3.870;2024-01-16T21:17:53;2.90;99.90
15916;DHT22;8057;47.830;-3.870;2024-01-16T21:22:04;2.90;99.90
15916;DHT22;8057;47.830;-3.870;2024-01-16T21:26:14;3.00;99.90
15916;DHT22;8057;47.830;-3.870;2024-01-16T21:30:23;3.00;99.90
15916;DHT22;8057;47.830;-3.870;2024-01-16T21:34:34;3.00;99.90
15916;DHT22;8057;47.830;-3.870;2024-01-16T21:38:44;2.90;99.90
15916;DHT22;8057;47.830;-3.870;2024-01-16T21:42:53;2.90;99.90
15916;DHT22;8057;47.830;-3.870;2024-01-16T21:47:02;2.90;99.90
15916;DHT22;8057;47.830;-3.870;2024-01-16T21:51:11;2.90;99.90
15916;DHT22;8057;47.830;-3.870;2024-01-16T21:55:21;2.90;99.90
15916;DHT22;8057;47.830;-3.870;2024-01-16T21:59:30;2.90;99.90
15916;DHT22;8057;47.830;-3.870;2024-01-16T22:03:39;2.90;99.90
15916;DHT22;8057;47.830;-3.870;2024-01-16T22:07:48;3.00;99.90
15916;DHT22;8057;47.830;-3.870;2024-01-16T22:11:58;2.90;99.90
15916;DHT22;8057;47.830;-3.870;2024-01-16T22:16:07;2.90;99.90
15916;DHT22;8057;47.830;-3.870;2024-01-16T22:20:17;2.90;99.90
15916;DHT22;8057;47.830;-3.870;2024-01-16T22:24:26;3.00;99.90
15916;DHT22;8057;47.830;-3.870;2024-01-16T22:28:37;3.00;99.90
15916;DHT22;8057;47.830;-3.870;2024-01-16T22:32:50;3.10;99.90
15916;DHT22;8057;47.830;-3.870;2024-01-16T22:37:00;3.00;99.90
15916;DHT22;8057;47.830;-3.870;2024-01-16T22:41:10;3.10;99.90
15916;DHT22;8057;47.830;-3.870;2024-01-16T22:45:21;3.10;99.90
15916;DHT22;8057;47.830;-3.870;2024-01-16T22:49:30;3.10;99.90
15916;DHT22;8057;47.830;-3.870;2024-01-16T22:53:39;3.10;99.90
15916;DHT22;8057;47.830;-3.870;2024-01-16T22:57:50;3.10;99.90
15916;DHT22;8057;47.830;-3.870;2024-01-16T23:02:00;3.20;99.90
15916;DHT22;8057;47.830;-3.870;2024-01-16T23:06:15;3.20;99.90
15916;DHT22;8057;47.830;-3.870;2024-01-16T23:10:28;3.30;99.90
15916;DHT22;8057;47.830;-3.870;2024-01-16T23:14:37;3.20;99.90
15916;DHT22;8057;47.830;-3.870;2024-01-16T23:18:47;3.20;99.90
15916;DHT22;8057;47.830;-3.870;2024-01-16T23:22:57;3.30;99.90
15916;DHT22;8057;47.830;-3.870;2024-01-16T23:27:06;3.30;99.90
15916;DHT22;8057;47.830;-3.870;2024-01-16T23:31:18;3.30;99.90
15916;DHT22;8057;47.830;-3.870;2024-01-16T23:35:28;3.30;99.90
15916;DHT22;8057;47.830;-3.870;2024-01-16T23:39:37;3.20;99.90
15916;DHT22;8057;47.830;-3.870;2024-01-16T23:43:46;3.30;99.90
15916;DHT22;8057;47.830;-3.870;2024-01-16T23:47:55;3.30;99.90
15916;DHT22;8057;47.830;-3.870;2024-01-16T23:52:06;3.30;99.90
15916;DHT22;8057;47.830;-3.870;2024-01-16T23:56:17;3.40;99.90
